sensor_id;sensor_type;location;lat;lon;timestamp;P1;durP1;ratioP1;P2;durP2;ratioP2
52450;SDS011;38366;53.176;6.540;2023-04-25T00:00:20;16.70;;;3.00;;
52450;SDS011;38366;53.176;6.540;2023-04-25T00:02:46;12.30;;;2.80;;
52450;SDS011;38366;53.176;6.540;2023-04-25T00:05:11;12.37;;;2.43;;
52450;SDS011;38366;53.176;6.540;2023-04-25T00:07:39;19.60;;;2.80;;
52450;SDS011;38366;53.176;6.540;2023-04-25T00:10:07;17.08;;;3.03;;
52450;SDS011;38366;53.176;6.540;2023-04-25T00:12:34;13.02;;;2.67;;
52450;SDS011;38366;53.176;6.540;2023-04-25T00:17:26;13.45;;;3.03;;
52450;SDS011;38366;53.176;6.540;2023-04-25T00:19:52;9.45;;;2.22;;
52450;SDS011;38366;53.176;6.540;2023-04-25T00:22:18;14.85;;;3.10;;
52450;SDS011;38366;53.176;6.540;2023-04-25T00:24:44;13.87;;;2.70;;
52450;SDS011;38366;53.176;6.540;2023-04-25T00:27:09;15.77;;;3.10;;
52450;SDS011;38366;53.176;6.540;2023-04-25T00:29:35;9.15;;;2.20;;
52450;SDS011;38366;53.176;6.540;2023-04-25T00:32:01;15.23;;;2.63;;
52450;SDS011;38366;53.176;6.540;2023-04-25T00:34:27;9.35;;;2.55;;
52450;SDS011;38366;53.176;6.540;2023-04-25T00:36:52;9.90;;;2.17;;
52450;SDS011;38366;53.176;6.540;2023-04-25T00:39:18;12.50;;;2.90;;
52450;SDS011;38366;53.176;6.540;2023-04-25T00:41:44;13.65;;;2.35;;
52450;SDS011;38366;53.176;6.540;2023-04-25T00:44:10;13.32;;;2.40;;
52450;SDS011;38366;53.176;6.540;2023-04-25T00:46:37;7.40;;;1.92;;
52450;SDS011;38366;53.176;6.540;2023-04-25T00:49:04;11.80;;;3.17;;
52450;SDS011;38366;53.176;6.540;2023-04-25T00:51:29;20.08;;;2.72;;
52450;SDS011;38366;53.176;6.540;2023-04-25T00:53:57;12.82;;;2.60;;
52450;SDS011;38366;53.176;6.540;2023-04-25T00:56:23;9.55;;;2.60;;
52450;SDS011;38366;53.176;6.540;2023-04-25T00:58:49;23.75;;;2.45;;
52450;SDS011;38366;53.176;6.540;2023-04-25T01:01:17;7.72;;;2.30;;
52450;SDS011;38366;53.176;6.540;2023-04-25T01:03:43;14.65;;;2.90;;
52450;SDS011;38366;53.176;6.540;2023-04-25T01:06:11;12.48;;;2.10;;
52450;SDS011;38366;53.176;6.540;2023-04-25T01:08:38;6.30;;;1.58;;
52450;SDS011;38366;53.176;6.540;2023-04-25T01:11:04;10.18;;;2.03;;
52450;SDS011;38366;53.176;6.540;2023-04-25T01:13:31;9.45;;;1.83;;
52450;SDS011;38366;53.176;6.540;2023-04-25T01:15:58;7.45;;;2.20;;
52450;SDS011;38366;53.176;6.540;2023-04-25T01:18:25;8.75;;;1.85;;
52450;SDS011;38366;53.176;6.540;2023-04-25T01:20:51;15.15;;;2.47;;
52450;SDS011;38366;53.176;6.540;2023-04-25T01:25:43;11.48;;;2.38;;
52450;SDS011;38366;53.176;6.540;2023-04-25T01:28:10;14.82;;;1.95;;
52450;SDS011;38366;53.176;6.540;2023-04-25T01:30:36;12.57;;;2.35;;
52450;SDS011;38366;53.176;6.540;2023-04-25T01:33:03;9.88;;;1.60;;
52450;SDS011;38366;53.176;6.540;2023-04-25T01:35:30;8.77;;;1.75;;
52450;SDS011;38366;53.176;6.540;2023-04-25T01:37:57;7.40;;;1.50;;
52450;SDS011;38366;53.176;6.540;2023-04-25T01:40:22;7.55;;;1.70;;
52450;SDS011;38366;53.176;6.540;2023-04-25T01:42:50;13.55;;;2.00;;
52450;SDS011;38366;53.176;6.540;2023-04-25T01:47:42;12.82;;;2.20;;
52450;SDS011;38366;53.176;6.540;2023-04-25T01:50:09;15.13;;;2.05;;
52450;SDS011;38366;53.176;6.540;2023-04-25T01:52:36;14.27;;;2.55;;
52450;SDS011;38366;53.176;6.540;2023-04-25T01:55:02;21.85;;;2.35;;
52450;SDS011;38366;53.176;6.540;2023-04-25T01:57:28;10.70;;;2.50;;
52450;SDS011;38366;53.176;6.540;2023-04-25T02:00:00;15.10;;;1.90;;
52450;SDS011;38366;53.176;6.540;2023-04-25T02:02:28;10.70;;;1.70;;
52450;SDS011;38366;53.176;6.540;2023-04-25T02:04:54;14.13;;;2.93;;
52450;SDS011;38366;53.176;6.540;2023-04-25T02:07:20;14.80;;;1.98;;
52450;SDS011;38366;53.176;6.540;2023-04-25T02:09:46;10.43;;;1.95;;
52450;SDS011;38366;53.176;6.540;2023-04-25T02:12:11;15.60;;;3.15;;
52450;SDS011;38366;53.176;6.540;2023-04-25T02:14:37;21.48;;;2.03;;
52450;SDS011;38366;53.176;6.540;2023-04-25T02:17:03;10.00;;;2.00;;
52450;SDS011;38366;53.176;6.540;2023-04-25T02:19:28;12.57;;;1.80;;
52450;SDS011;38366;53.176;6.540;2023-04-25T02:21:54;11.93;;;1.98;;
52450;SDS011;38366;53.176;6.540;2023-04-25T02:24:22;9.43;;;1.83;;
52450;SDS011;38366;53.176;6.540;2023-04-25T02:26:47;9.07;;;1.55;;
52450;SDS011;38366;53.176;6.540;2023-04-25T02:29:14;8.38;;;2.50;;
52450;SDS011;38366;53.176;6.540;2023-04-25T02:31:40;11.70;;;2.05;;
52450;SDS011;38366;53.176;6.540;2023-04-25T02:34:06;17.70;;;2.17;;
52450;SDS011;38366;53.176;6.540;2023-04-25T02:36:32;7.47;;;1.83;;
52450;SDS011;38366;53.176;6.540;2023-04-25T02:38:59;14.90;;;1.83;;
52450;SDS011;38366;53.176;6.540;2023-04-25T02:41:26;15.82;;;2.22;;
52450;SDS011;38366;53.176;6.540;2023-04-25T02:43:52;5.25;;;1.30;;
52450;SDS011;38366;53.176;6.540;2023-04-25T02:46:17;9.33;;;1.60;;
52450;SDS011;38366;53.176;6.540;2023-04-25T02:48:43;12.23;;;1.92;;
52450;SDS011;38366;53.176;6.540;2023-04-25T02:51:09;10.27;;;1.77;;
52450;SDS011;38366;53.176;6.540;2023-04-25T02:53:35;9.25;;;1.67;;
52450;SDS011;38366;53.176;6.540;2023-04-25T02:56:01;13.40;;;1.73;;
52450;SDS011;38366;53.176;6.540;2023-04-25T02:58:26;10.45;;;1.67;;
52450;SDS011;38366;53.176;6.540;2023-04-25T03:00:52;9.77;;;1.63;;
52450;SDS011;38366;53.176;6.540;2023-04-25T03:03:18;18.58;;;2.55;;
52450;SDS011;38366;53.176;6.540;2023-04-25T03:05:46;12.70;;;2.05;;
52450;SDS011;38366;53.176;6.540;2023-04-25T03:08:16;11.40;;;2.17;;
52450;SDS011;38366;53.176;6.540;2023-04-25T03:10:43;10.43;;;1.83;;
52450;SDS011;38366;53.176;6.540;2023-04-25T03:13:09;7.25;;;1.50;;
52450;SDS011;38366;53.176;6.540;2023-04-25T03:15:35;9.98;;;1.70;;
52450;SDS011;38366;53.176;6.540;2023-04-25T03:20:27;10.88;;;2.40;;
52450;SDS011;38366;53.176;6.540;2023-04-25T03:22:53;11.95;;;2.33;;
52450;SDS011;38366;53.176;6.540;2023-04-25T03:25:19;8.80;;;1.58;;
52450;SDS011;38366;53.176;6.540;2023-04-25T03:27:45;10.95;;;1.65;;
52450;SDS011;38366;53.176;6.540;2023-04-25T03:30:11;6.93;;;1.37;;
52450;SDS011;38366;53.176;6.540;2023-04-25T03:32:37;5.18;;;1.45;;
52450;SDS011;38366;53.176;6.540;2023-04-25T03:35:03;5.68;;;1.85;;
52450;SDS011;38366;53.176;6.540;2023-04-25T03:37:29;7.60;;;1.38;;
52450;SDS011;38366;53.176;6.540;2023-04-25T03:39:54;11.20;;;1.70;;
52450;SDS011;38366;53.176;6.540;2023-04-25T03:42:20;9.87;;;1.40;;
52450;SDS011;38366;53.176;6.540;2023-04-25T03:44:48;14.18;;;1.58;;
52450;SDS011;38366;53.176;6.540;2023-04-25T03:47:14;6.70;;;1.40;;
52450;SDS011;38366;53.176;6.540;2023-04-25T03:49:41;6.05;;;1.65;;
52450;SDS011;38366;53.176;6.540;2023-04-25T03:54:32;9.15;;;1.75;;
52450;SDS011;38366;53.176;6.540;2023-04-25T03:56:58;10.13;;;1.60;;
52450;SDS011;38366;53.176;6.540;2023-04-25T03:59:23;7.13;;;1.58;;
52450;SDS011;38366;53.176;6.540;2023-04-25T04:01:51;7.22;;;1.73;;
52450;SDS011;38366;53.176;6.540;2023-04-25T04:04:17;10.65;;;1.70;;
52450;SDS011;38366;53.176;6.540;2023-04-25T04:06:43;8.18;;;2.08;;
52450;SDS011;38366;53.176;6.540;2023-04-25T04:09:09;11.20;;;1.55;;
52450;SDS011;38366;53.176;6.540;2023-04-25T04:11:36;8.32;;;2.70;;
52450;SDS011;38366;53.176;6.540;2023-04-25T04:14:04;12.18;;;3.20;;
52450;SDS011;38366;53.176;6.540;2023-04-25T04:16:31;12.18;;;1.63;;
52450;SDS011;38366;53.176;6.540;2023-04-25T04:18:56;12.40;;;1.52;;
52450;SDS011;38366;53.176;6.540;2023-04-25T04:21:22;8.13;;;1.93;;
52450;SDS011;38366;53.176;6.540;2023-04-25T04:23:48;13.15;;;2.05;;
52450;SDS011;38366;53.176;6.540;2023-04-25T04:26:14;6.03;;;1.20;;
52450;SDS011;38366;53.176;6.540;2023-04-25T04:28:41;9.52;;;1.63;;
52450;SDS011;38366;53.176;6.540;2023-04-25T04:31:09;12.63;;;1.75;;
52450;SDS011;38366;53.176;6.540;2023-04-25T04:33:35;8.95;;;1.48;;
52450;SDS011;38366;53.176;6.540;2023-04-25T04:36:01;6.90;;;1.33;;
52450;SDS011;38366;53.176;6.540;2023-04-25T04:38:28;9.15;;;2.13;;
52450;SDS011;38366;53.176;6.540;2023-04-25T04:40:54;7.90;;;1.50;;
52450;SDS011;38366;53.176;6.540;2023-04-25T04:45:47;9.18;;;1.90;;
52450;SDS011;38366;53.176;6.540;2023-04-25T04:48:15;8.38;;;2.10;;
52450;SDS011;38366;53.176;6.540;2023-04-25T04:50:42;12.45;;;2.17;;
52450;SDS011;38366;53.176;6.540;2023-04-25T04:53:10;15.80;;;1.85;;
52450;SDS011;38366;53.176;6.540;2023-04-25T04:55:36;9.35;;;1.60;;
52450;SDS011;38366;53.176;6.540;2023-04-25T04:58:02;13.07;;;1.70;;
52450;SDS011;38366;53.176;6.540;2023-04-25T05:00:28;10.53;;;1.80;;
52450;SDS011;38366;53.176;6.540;2023-04-25T05:02:54;10.88;;;2.35;;
52450;SDS011;38366;53.176;6.540;2023-04-25T05:05:23;8.55;;;1.58;;
52450;SDS011;38366;53.176;6.540;2023-04-25T05:07:48;16.67;;;2.00;;
52450;SDS011;38366;53.176;6.540;2023-04-25T05:10:14;15.48;;;2.58;;
52450;SDS011;38366;53.176;6.540;2023-04-25T05:12:40;11.55;;;2.50;;
52450;SDS011;38366;53.176;6.540;2023-04-25T05:15:06;9.57;;;1.25;;
52450;SDS011;38366;53.176;6.540;2023-04-25T05:17:32;10.13;;;1.77;;
52450;SDS011;38366;53.176;6.540;2023-04-25T05:19:58;5.85;;;1.48;;
52450;SDS011;38366;53.176;6.540;2023-04-25T05:22:23;6.30;;;1.67;;
52450;SDS011;38366;53.176;6.540;2023-04-25T05:24:49;7.30;;;1.70;;
52450;SDS011;38366;53.176;6.540;2023-04-25T05:27:16;8.10;;;1.73;;
52450;SDS011;38366;53.176;6.540;2023-04-25T05:29:43;8.32;;;1.48;;
52450;SDS011;38366;53.176;6.540;2023-04-25T05:32:09;6.88;;;2.03;;
52450;SDS011;38366;53.176;6.540;2023-04-25T05:34:38;4.65;;;1.40;;
52450;SDS011;38366;53.176;6.540;2023-04-25T05:37:03;7.40;;;1.50;;
52450;SDS011;38366;53.176;6.540;2023-04-25T05:39:29;9.87;;;2.03;;
52450;SDS011;38366;53.176;6.540;2023-04-25T05:41:55;6.10;;;1.73;;
52450;SDS011;38366;53.176;6.540;2023-04-25T05:44:20;10.25;;;1.63;;
52450;SDS011;38366;53.176;6.540;2023-04-25T05:46:46;6.63;;;1.10;;
52450;SDS011;38366;53.176;6.540;2023-04-25T05:49:12;5.97;;;1.13;;
52450;SDS011;38366;53.176;6.540;2023-04-25T05:51:38;7.10;;;1.15;;
52450;SDS011;38366;53.176;6.540;2023-04-25T05:54:03;6.00;;;1.13;;
52450;SDS011;38366;53.176;6.540;2023-04-25T05:56:29;6.57;;;1.38;;
52450;SDS011;38366;53.176;6.540;2023-04-25T05:58:55;8.77;;;1.60;;
52450;SDS011;38366;53.176;6.540;2023-04-25T06:01:22;9.30;;;2.13;;
52450;SDS011;38366;53.176;6.540;2023-04-25T06:03:48;7.57;;;1.88;;
52450;SDS011;38366;53.176;6.540;2023-04-25T06:06:14;5.72;;;1.00;;
52450;SDS011;38366;53.176;6.540;2023-04-25T06:08:40;6.07;;;1.20;;
52450;SDS011;38366;53.176;6.540;2023-04-25T06:11:06;4.70;;;1.02;;
52450;SDS011;38366;53.176;6.540;2023-04-25T06:13:32;7.20;;;1.25;;
52450;SDS011;38366;53.176;6.540;2023-04-25T06:15:57;11.27;;;1.48;;
52450;SDS011;38366;53.176;6.540;2023-04-25T06:18:23;3.70;;;1.30;;
52450;SDS011;38366;53.176;6.540;2023-04-25T06:20:49;5.30;;;1.17;;
52450;SDS011;38366;53.176;6.540;2023-04-25T06:23:15;9.25;;;1.58;;
52450;SDS011;38366;53.176;6.540;2023-04-25T06:25:40;4.87;;;1.10;;
52450;SDS011;38366;53.176;6.540;2023-04-25T06:28:06;10.90;;;1.75;;
52450;SDS011;38366;53.176;6.540;2023-04-25T06:30:32;10.27;;;1.90;;
52450;SDS011;38366;53.176;6.540;2023-04-25T06:32:57;6.13;;;1.17;;
52450;SDS011;38366;53.176;6.540;2023-04-25T06:35:23;9.33;;;1.20;;
52450;SDS011;38366;53.176;6.540;2023-04-25T06:37:49;4.87;;;1.30;;
52450;SDS011;38366;53.176;6.540;2023-04-25T06:40:14;4.95;;;0.93;;
52450;SDS011;38366;53.176;6.540;2023-04-25T06:42:42;4.38;;;1.00;;
52450;SDS011;38366;53.176;6.540;2023-04-25T06:45:08;4.75;;;0.85;;
52450;SDS011;38366;53.176;6.540;2023-04-25T06:47:34;5.55;;;1.02;;
52450;SDS011;38366;53.176;6.540;2023-04-25T06:49:59;7.63;;;1.40;;
52450;SDS011;38366;53.176;6.540;2023-04-25T06:52:25;7.87;;;1.23;;
52450;SDS011;38366;53.176;6.540;2023-04-25T06:54:51;5.28;;;1.20;;
52450;SDS011;38366;53.176;6.540;2023-04-25T06:57:16;3.67;;;1.17;;
52450;SDS011;38366;53.176;6.540;2023-04-25T06:59:42;8.87;;;1.47;;
52450;SDS011;38366;53.176;6.540;2023-04-25T07:02:08;5.28;;;1.20;;
52450;SDS011;38366;53.176;6.540;2023-04-25T07:04:33;5.13;;;1.25;;
52450;SDS011;38366;53.176;6.540;2023-04-25T07:06:59;4.47;;;0.90;;
52450;SDS011;38366;53.176;6.540;2023-04-25T07:09:27;8.15;;;1.25;;
52450;SDS011;38366;53.176;6.540;2023-04-25T07:11:53;7.47;;;1.05;;
52450;SDS011;38366;53.176;6.540;2023-04-25T07:14:19;6.35;;;1.30;;
52450;SDS011;38366;53.176;6.540;2023-04-25T07:16:45;3.70;;;0.98;;
52450;SDS011;38366;53.176;6.540;2023-04-25T07:19:10;5.53;;;1.03;;
52450;SDS011;38366;53.176;6.540;2023-04-25T07:21:36;7.90;;;1.13;;
52450;SDS011;38366;53.176;6.540;2023-04-25T07:24:02;7.50;;;1.35;;
52450;SDS011;38366;53.176;6.540;2023-04-25T07:26:27;4.13;;;0.82;;
52450;SDS011;38366;53.176;6.540;2023-04-25T07:28:53;5.05;;;0.90;;
52450;SDS011;38366;53.176;6.540;2023-04-25T07:31:19;5.68;;;0.98;;
52450;SDS011;38366;53.176;6.540;2023-04-25T07:33:46;5.55;;;0.80;;
52450;SDS011;38366;53.176;6.540;2023-04-25T07:36:12;5.93;;;1.07;;
52450;SDS011;38366;53.176;6.540;2023-04-25T07:38:40;3.10;;;1.00;;
52450;SDS011;38366;53.176;6.540;2023-04-25T07:41:06;19.42;;;1.35;;
52450;SDS011;38366;53.176;6.540;2023-04-25T07:43:31;6.43;;;1.63;;
52450;SDS011;38366;53.176;6.540;2023-04-25T07:45:57;6.80;;;1.05;;
52450;SDS011;38366;53.176;6.540;2023-04-25T07:48:23;6.00;;;1.00;;
52450;SDS011;38366;53.176;6.540;2023-04-25T07:50:48;2.90;;;0.67;;
52450;SDS011;38366;53.176;6.540;2023-04-25T07:53:14;2.05;;;0.47;;
52450;SDS011;38366;53.176;6.540;2023-04-25T07:55:40;4.18;;;0.85;;
52450;SDS011;38366;53.176;6.540;2023-04-25T07:58:06;2.60;;;0.68;;
52450;SDS011;38366;53.176;6.540;2023-04-25T08:00:32;5.07;;;1.65;;
52450;SDS011;38366;53.176;6.540;2023-04-25T08:02:58;5.20;;;0.70;;
52450;SDS011;38366;53.176;6.540;2023-04-25T08:05:24;4.70;;;0.70;;
52450;SDS011;38366;53.176;6.540;2023-04-25T08:07:49;5.47;;;0.82;;
52450;SDS011;38366;53.176;6.540;2023-04-25T08:10:15;2.80;;;0.73;;
52450;SDS011;38366;53.176;6.540;2023-04-25T08:12:41;10.77;;;1.30;;
52450;SDS011;38366;53.176;6.540;2023-04-25T08:15:07;3.35;;;0.63;;
52450;SDS011;38366;53.176;6.540;2023-04-25T08:19:59;3.55;;;0.73;;
52450;SDS011;38366;53.176;6.540;2023-04-25T08:22:25;2.97;;;0.77;;
52450;SDS011;38366;53.176;6.540;2023-04-25T08:24:51;2.60;;;0.52;;
52450;SDS011;38366;53.176;6.540;2023-04-25T08:27:17;2.58;;;0.60;;
52450;SDS011;38366;53.176;6.540;2023-04-25T08:29:43;2.20;;;0.70;;
52450;SDS011;38366;53.176;6.540;2023-04-25T08:32:09;3.63;;;0.60;;
52450;SDS011;38366;53.176;6.540;2023-04-25T08:34:35;2.80;;;0.70;;
52450;SDS011;38366;53.176;6.540;2023-04-25T08:37:02;5.10;;;0.95;;
52450;SDS011;38366;53.176;6.540;2023-04-25T08:41:55;2.55;;;0.50;;
52450;SDS011;38366;53.176;6.540;2023-04-25T08:44:22;4.20;;;0.90;;
52450;SDS011;38366;53.176;6.540;2023-04-25T08:46:48;3.35;;;0.80;;
52450;SDS011;38366;53.176;6.540;2023-04-25T08:51:45;2.70;;;0.50;;
52450;SDS011;38366;53.176;6.540;2023-04-25T08:54:12;1.85;;;0.50;;
52450;SDS011;38366;53.176;6.540;2023-04-25T08:56:40;2.97;;;0.70;;
52450;SDS011;38366;53.176;6.540;2023-04-25T08:59:10;1.90;;;0.50;;
52450;SDS011;38366;53.176;6.540;2023-04-25T09:01:38;3.20;;;0.57;;
52450;SDS011;38366;53.176;6.540;2023-04-25T09:04:05;5.90;;;0.80;;
52450;SDS011;38366;53.176;6.540;2023-04-25T09:06:31;3.63;;;0.63;;
52450;SDS011;38366;53.176;6.540;2023-04-25T09:11:30;3.88;;;0.73;;
52450;SDS011;38366;53.176;6.540;2023-04-25T09:22:01;9.00;;;0.90;;
52450;SDS011;38366;53.176;6.540;2023-04-25T09:27:08;6.65;;;1.10;;
52450;SDS011;38366;53.176;6.540;2023-04-25T09:29:37;5.70;;;0.60;;
52450;SDS011;38366;53.176;6.540;2023-04-25T09:32:15;5.93;;;1.20;;
52450;SDS011;38366;53.176;6.540;2023-04-25T09:34:44;7.90;;;0.90;;
52450;SDS011;38366;53.176;6.540;2023-04-25T09:37:27;3.67;;;0.93;;
52450;SDS011;38366;53.176;6.540;2023-04-25T09:39:55;7.55;;;1.00;;
52450;SDS011;38366;53.176;6.540;2023-04-25T09:42:27;5.40;;;1.00;;
52450;SDS011;38366;53.176;6.540;2023-04-25T09:44:56;6.20;;;1.40;;
52450;SDS011;38366;53.176;6.540;2023-04-25T09:49:50;4.10;;;0.93;;
52450;SDS011;38366;53.176;6.540;2023-04-25T09:52:17;4.07;;;0.68;;
52450;SDS011;38366;53.176;6.540;2023-04-25T09:54:45;7.63;;;0.80;;
52450;SDS011;38366;53.176;6.540;2023-04-25T09:57:18;5.03;;;1.00;;
52450;SDS011;38366;53.176;6.540;2023-04-25T09:59:52;4.47;;;1.08;;
52450;SDS011;38366;53.176;6.540;2023-04-25T10:02:19;7.75;;;0.80;;
52450;SDS011;38366;53.176;6.540;2023-04-25T10:04:52;7.45;;;0.85;;
52450;SDS011;38366;53.176;6.540;2023-04-25T10:07:23;6.65;;;0.70;;
52450;SDS011;38366;53.176;6.540;2023-04-25T10:09:59;4.50;;;0.80;;
52450;SDS011;38366;53.176;6.540;2023-04-25T10:12:27;6.38;;;1.02;;
52450;SDS011;38366;53.176;6.540;2023-04-25T10:14:55;6.07;;;1.23;;
52450;SDS011;38366;53.176;6.540;2023-04-25T10:17:21;5.88;;;1.00;;
52450;SDS011;38366;53.176;6.540;2023-04-25T10:22:18;7.85;;;1.23;;
52450;SDS011;38366;53.176;6.540;2023-04-25T10:24:51;7.55;;;0.95;;
52450;SDS011;38366;53.176;6.540;2023-04-25T10:27:17;7.95;;;1.25;;
52450;SDS011;38366;53.176;6.540;2023-04-25T10:29:43;6.18;;;1.13;;
52450;SDS011;38366;53.176;6.540;2023-04-25T10:32:09;4.32;;;0.82;;
52450;SDS011;38366;53.176;6.540;2023-04-25T10:34:39;5.72;;;0.80;;
52450;SDS011;38366;53.176;6.540;2023-04-25T10:37:08;9.35;;;0.88;;
52450;SDS011;38366;53.176;6.540;2023-04-25T10:39:35;6.35;;;0.93;;
52450;SDS011;38366;53.176;6.540;2023-04-25T10:42:03;5.78;;;0.82;;
52450;SDS011;38366;53.176;6.540;2023-04-25T10:44:29;8.95;;;1.20;;
52450;SDS011;38366;53.176;6.540;2023-04-25T10:46:56;6.72;;;0.90;;
52450;SDS011;38366;53.176;6.540;2023-04-25T10:52:24;2.88;;;0.75;;
52450;SDS011;38366;53.176;6.540;2023-04-25T10:54:48;7.72;;;1.10;;
52450;SDS011;38366;53.176;6.540;2023-04-25T11:00:00;3.00;;;0.73;;
52450;SDS011;38366;53.176;6.540;2023-04-25T11:02:37;5.20;;;0.90;;
52450;SDS011;38366;53.176;6.540;2023-04-25T11:05:05;4.97;;;0.80;;
52450;SDS011;38366;53.176;6.540;2023-04-25T11:10:08;2.95;;;0.70;;
52450;SDS011;38366;53.176;6.540;2023-04-25T11:12:34;2.42;;;0.77;;
52450;SDS011;38366;53.176;6.540;2023-04-25T11:15:01;5.45;;;0.90;;
52450;SDS011;38366;53.176;6.540;2023-04-25T11:17:28;4.63;;;0.70;;
52450;SDS011;38366;53.176;6.540;2023-04-25T11:19:54;4.40;;;0.90;;
52450;SDS011;38366;53.176;6.540;2023-04-25T11:22:21;4.00;;;0.88;;
52450;SDS011;38366;53.176;6.540;2023-04-25T11:24:47;3.83;;;0.93;;
52450;SDS011;38366;53.176;6.540;2023-04-25T11:27:13;3.40;;;0.70;;
52450;SDS011;38366;53.176;6.540;2023-04-25T11:29:40;3.40;;;1.00;;
52450;SDS011;38366;53.176;6.540;2023-04-25T11:32:06;4.60;;;0.88;;
52450;SDS011;38366;53.176;6.540;2023-04-25T11:34:32;3.38;;;0.75;;
52450;SDS011;38366;53.176;6.540;2023-04-25T11:36:59;6.63;;;0.98;;
52450;SDS011;38366;53.176;6.540;2023-04-25T11:39:28;3.83;;;0.90;;
52450;SDS011;38366;53.176;6.540;2023-04-25T11:41:54;4.90;;;0.63;;
52450;SDS011;38366;53.176;6.540;2023-04-25T11:44:20;3.42;;;0.70;;
52450;SDS011;38366;53.176;6.540;2023-04-25T11:46:47;3.90;;;0.63;;
52450;SDS011;38366;53.176;6.540;2023-04-25T11:49:13;4.25;;;0.88;;
52450;SDS011;38366;53.176;6.540;2023-04-25T11:51:43;4.35;;;0.88;;
52450;SDS011;38366;53.176;6.540;2023-04-25T11:54:10;3.75;;;0.80;;
52450;SDS011;38366;53.176;6.540;2023-04-25T11:56:37;5.22;;;0.85;;
52450;SDS011;38366;53.176;6.540;2023-04-25T11:59:06;4.07;;;0.95;;
52450;SDS011;38366;53.176;6.540;2023-04-25T12:06:41;6.32;;;1.13;;
52450;SDS011;38366;53.176;6.540;2023-04-25T12:09:09;5.40;;;0.70;;
52450;SDS011;38366;53.176;6.540;2023-04-25T12:11:46;7.25;;;0.98;;
52450;SDS011;38366;53.176;6.540;2023-04-25T12:14:22;3.95;;;0.73;;
52450;SDS011;38366;53.176;6.540;2023-04-25T12:16:52;4.03;;;0.70;;
52450;SDS011;38366;53.176;6.540;2023-04-25T12:19:22;8.07;;;1.35;;
52450;SDS011;38366;53.176;6.540;2023-04-25T12:21:48;4.68;;;1.10;;
52450;SDS011;38366;53.176;6.540;2023-04-25T12:24:15;6.03;;;0.95;;
52450;SDS011;38366;53.176;6.540;2023-04-25T12:26:49;5.72;;;1.02;;
52450;SDS011;38366;53.176;6.540;2023-04-25T12:29:29;3.97;;;0.88;;
52450;SDS011;38366;53.176;6.540;2023-04-25T12:31:56;6.50;;;0.60;;
52450;SDS011;38366;53.176;6.540;2023-04-25T12:34:23;5.22;;;1.00;;
52450;SDS011;38366;53.176;6.540;2023-04-25T12:39:19;4.57;;;0.80;;
52450;SDS011;38366;53.176;6.540;2023-04-25T12:41:49;6.45;;;0.85;;
52450;SDS011;38366;53.176;6.540;2023-04-25T12:44:15;8.68;;;0.90;;
52450;SDS011;38366;53.176;6.540;2023-04-25T12:49:07;3.70;;;0.82;;
52450;SDS011;38366;53.176;6.540;2023-04-25T12:54:00;4.25;;;0.65;;
52450;SDS011;38366;53.176;6.540;2023-04-25T12:56:27;3.30;;;0.70;;
52450;SDS011;38366;53.176;6.540;2023-04-25T12:58:52;3.78;;;0.65;;
52450;SDS011;38366;53.176;6.540;2023-04-25T13:01:19;3.38;;;0.60;;
52450;SDS011;38366;53.176;6.540;2023-04-25T13:03:48;5.60;;;0.90;;
52450;SDS011;38366;53.176;6.540;2023-04-25T13:06:14;3.90;;;0.63;;
52450;SDS011;38366;53.176;6.540;2023-04-25T13:08:40;3.90;;;0.80;;
52450;SDS011;38366;53.176;6.540;2023-04-25T13:11:07;5.65;;;0.68;;
52450;SDS011;38366;53.176;6.540;2023-04-25T13:13:33;6.90;;;0.75;;
52450;SDS011;38366;53.176;6.540;2023-04-25T13:16:03;3.88;;;1.00;;
52450;SDS011;38366;53.176;6.540;2023-04-25T13:18:30;5.43;;;1.13;;
52450;SDS011;38366;53.176;6.540;2023-04-25T13:23:22;3.63;;;0.70;;
52450;SDS011;38366;53.176;6.540;2023-04-25T13:25:48;4.68;;;0.90;;
52450;SDS011;38366;53.176;6.540;2023-04-25T13:28:14;3.60;;;0.85;;
52450;SDS011;38366;53.176;6.540;2023-04-25T13:30:40;7.72;;;0.85;;
52450;SDS011;38366;53.176;6.540;2023-04-25T13:33:06;6.32;;;0.90;;
52450;SDS011;38366;53.176;6.540;2023-04-25T13:35:32;5.82;;;1.05;;
52450;SDS011;38366;53.176;6.540;2023-04-25T13:37:59;4.60;;;1.10;;
52450;SDS011;38366;53.176;6.540;2023-04-25T13:40:25;3.03;;;0.90;;
52450;SDS011;38366;53.176;6.540;2023-04-25T13:42:51;5.88;;;1.00;;
52450;SDS011;38366;53.176;6.540;2023-04-25T13:45:18;4.72;;;1.00;;
52450;SDS011;38366;53.176;6.540;2023-04-25T13:47:44;2.78;;;0.90;;
52450;SDS011;38366;53.176;6.540;2023-04-25T13:50:10;5.15;;;0.90;;
52450;SDS011;38366;53.176;6.540;2023-04-25T13:52:36;5.10;;;0.70;;
52450;SDS011;38366;53.176;6.540;2023-04-25T13:55:02;5.78;;;0.60;;
52450;SDS011;38366;53.176;6.540;2023-04-25T13:57:30;3.92;;;0.80;;
52450;SDS011;38366;53.176;6.540;2023-04-25T13:59:56;2.70;;;0.65;;
52450;SDS011;38366;53.176;6.540;2023-04-25T14:02:22;4.38;;;0.70;;
52450;SDS011;38366;53.176;6.540;2023-04-25T14:04:47;4.95;;;1.02;;
52450;SDS011;38366;53.176;6.540;2023-04-25T14:07:13;6.82;;;1.15;;
52450;SDS011;38366;53.176;6.540;2023-04-25T14:09:43;7.35;;;1.17;;
52450;SDS011;38366;53.176;6.540;2023-04-25T14:12:09;4.28;;;1.00;;
52450;SDS011;38366;53.176;6.540;2023-04-25T14:14:35;4.65;;;0.90;;
52450;SDS011;38366;53.176;6.540;2023-04-25T14:17:01;8.90;;;1.25;;
52450;SDS011;38366;53.176;6.540;2023-04-25T14:19:26;9.53;;;1.10;;
52450;SDS011;38366;53.176;6.540;2023-04-25T14:21:53;6.97;;;1.23;;
52450;SDS011;38366;53.176;6.540;2023-04-25T14:24:19;6.93;;;0.85;;
52450;SDS011;38366;53.176;6.540;2023-04-25T14:26:45;4.65;;;1.23;;
52450;SDS011;38366;53.176;6.540;2023-04-25T14:29:11;5.25;;;1.00;;
52450;SDS011;38366;53.176;6.540;2023-04-25T14:31:37;4.28;;;0.65;;
52450;SDS011;38366;53.176;6.540;2023-04-25T14:34:06;5.25;;;0.70;;
52450;SDS011;38366;53.176;6.540;2023-04-25T14:36:32;6.18;;;1.00;;
52450;SDS011;38366;53.176;6.540;2023-04-25T14:38:59;5.00;;;0.75;;
52450;SDS011;38366;53.176;6.540;2023-04-25T14:41:25;1.95;;;0.70;;
52450;SDS011;38366;53.176;6.540;2023-04-25T14:43:51;5.82;;;0.88;;
52450;SDS011;38366;53.176;6.540;2023-04-25T14:46:18;3.28;;;0.73;;
52450;SDS011;38366;53.176;6.540;2023-04-25T14:48:45;7.22;;;1.23;;
52450;SDS011;38366;53.176;6.540;2023-04-25T14:51:12;14.25;;;2.15;;
52450;SDS011;38366;53.176;6.540;2023-04-25T14:53:37;4.40;;;1.08;;
52450;SDS011;38366;53.176;6.540;2023-04-25T14:56:04;8.18;;;0.93;;
52450;SDS011;38366;53.176;6.540;2023-04-25T14:58:30;8.02;;;1.05;;
52450;SDS011;38366;53.176;6.540;2023-04-25T15:00:56;3.75;;;1.25;;
52450;SDS011;38366;53.176;6.540;2023-04-25T15:03:22;4.85;;;1.00;;
52450;SDS011;38366;53.176;6.540;2023-04-25T15:05:47;6.65;;;1.08;;
52450;SDS011;38366;53.176;6.540;2023-04-25T15:08:13;2.90;;;0.73;;
52450;SDS011;38366;53.176;6.540;2023-04-25T15:10:39;7.47;;;1.20;;
52450;SDS011;38366;53.176;6.540;2023-04-25T15:13:04;5.72;;;0.90;;
52450;SDS011;38366;53.176;6.540;2023-04-25T15:15:30;2.47;;;0.60;;
52450;SDS011;38366;53.176;6.540;2023-04-25T15:17:56;4.60;;;0.70;;
52450;SDS011;38366;53.176;6.540;2023-04-25T15:20:22;8.52;;;0.98;;
52450;SDS011;38366;53.176;6.540;2023-04-25T15:22:48;2.97;;;0.82;;
52450;SDS011;38366;53.176;6.540;2023-04-25T15:25:15;4.18;;;1.05;;
52450;SDS011;38366;53.176;6.540;2023-04-25T15:27:43;3.63;;;0.95;;
52450;SDS011;38366;53.176;6.540;2023-04-25T15:30:11;4.47;;;1.23;;
52450;SDS011;38366;53.176;6.540;2023-04-25T15:32:40;7.30;;;1.70;;
52450;SDS011;38366;53.176;6.540;2023-04-25T15:35:07;5.18;;;0.80;;
52450;SDS011;38366;53.176;6.540;2023-04-25T15:37:33;8.95;;;1.20;;
52450;SDS011;38366;53.176;6.540;2023-04-25T15:40:04;5.38;;;0.80;;
52450;SDS011;38366;53.176;6.540;2023-04-25T15:42:36;6.18;;;0.80;;
52450;SDS011;38366;53.176;6.540;2023-04-25T15:45:07;3.67;;;0.70;;